createdAt,value
2019-04-06T00:01:50.026Z,71.62
2019-04-06T00:04:18.785Z,72.20
2019-04-06T00:06:47.556Z,63.42
2019-04-06T00:09:16.315Z,68.47
2019-04-06T00:11:45.097Z,61.20
2019-04-06T00:14:13.908Z,64.55
2019-04-06T00:16:42.663Z,63.10
2019-04-06T00:19:11.410Z,60.65
2019-04-06T00:21:40.187Z,61.30
2019-04-06T00:24:08.932Z,66.77
2019-04-06T00:26:37.711Z,65.00
2019-04-06T00:29:06.745Z,62.27
2019-04-06T00:31:39.901Z,56.50
2019-04-06T00:34:08.673Z,60.73
2019-04-06T00:36:37.432Z,60.60
2019-04-06T00:39:06.934Z,64.25
2019-04-06T00:41:35.774Z,62.65
2019-04-06T00:44:04.602Z,66.82
2019-04-06T00:46:33.373Z,57.60
2019-04-06T00:49:02.129Z,59.13
2019-04-06T00:51:30.950Z,60.75
2019-04-06T00:53:59.722Z,63.20
2019-04-06T00:56:28.496Z,61.55
2019-04-06T00:58:57.279Z,60.40
2019-04-06T01:01:26.146Z,56.42
2019-04-06T01:03:55.036Z,55.58
2019-04-06T01:06:23.986Z,52.83
2019-04-06T01:08:52.823Z,57.48
2019-04-06T01:11:21.657Z,57.15
2019-04-06T01:13:50.447Z,56.08
2019-04-06T01:16:19.289Z,56.02
2019-04-06T01:18:48.091Z,52.80
2019-04-06T01:21:16.860Z,52.73
2019-04-06T01:23:45.637Z,50.20
2019-04-06T01:26:14.405Z,52.43
2019-04-06T01:28:43.171Z,47.45
2019-04-06T01:31:11.982Z,51.75
2019-04-06T01:33:40.779Z,46.28
2019-04-06T01:36:09.601Z,49.73
2019-04-06T01:38:38.420Z,45.30
2019-04-06T01:41:07.205Z,44.20
2019-04-06T01:43:36.004Z,50.45
2019-04-06T01:46:04.846Z,48.38
2019-04-06T01:48:33.595Z,50.67
2019-04-06T01:51:02.389Z,45.48
2019-04-06T01:53:31.326Z,48.90
2019-04-06T01:56:00.105Z,51.10
2019-04-06T01:58:28.880Z,47.55
2019-04-06T02:01:15.382Z,45.70
2019-04-06T02:03:44.167Z,44.42
2019-04-06T02:06:12.958Z,48.40
2019-04-06T02:08:41.703Z,42.88
2019-04-06T02:11:10.452Z,48.20
2019-04-06T02:13:39.236Z,44.75
2019-04-06T02:16:07.993Z,47.30
2019-04-06T02:18:36.755Z,48.83
2019-04-06T02:21:05.723Z,52.95
2019-04-06T02:23:34.558Z,47.00
2019-04-06T02:26:03.339Z,41.88
2019-04-06T02:28:32.084Z,44.75
2019-04-06T02:31:14.618Z,40.10
2019-04-06T02:33:54.015Z,47.45
2019-04-06T02:36:30.149Z,47.75
2019-04-06T02:39:03.487Z,43.28
2019-04-06T02:41:42.811Z,44.67
2019-04-06T02:44:11.682Z,42.80
2019-04-06T02:46:40.483Z,44.63
2019-04-06T02:49:09.308Z,48.95
2019-04-06T02:51:38.119Z,41.35
2019-04-06T02:54:06.892Z,45.60
2019-04-06T02:56:45.469Z,41.30
2019-04-06T02:59:06.149Z,49.13
2019-04-06T03:01:34.909Z,49.18
2019-04-06T03:04:03.809Z,43.30
2019-04-06T03:06:32.588Z,44.42
2019-04-06T03:09:01.464Z,43.60
2019-04-06T03:11:30.216Z,41.42
2019-04-06T03:13:59.048Z,50.10
2019-04-06T03:16:27.885Z,46.30
2019-04-06T03:18:56.634Z,45.67
2019-04-06T03:21:25.410Z,40.33
2019-04-06T03:23:54.509Z,42.73
2019-04-06T03:26:23.621Z,39.73
2019-04-06T03:28:52.471Z,44.15
2019-04-06T03:31:25.246Z,43.63
2019-04-06T03:33:51.733Z,40.08
2019-04-06T03:36:20.752Z,42.48
2019-04-06T03:38:49.575Z,159.90
2019-04-06T03:41:18.594Z,52.55
2019-04-06T03:43:47.526Z,35.65
2019-04-06T03:46:16.305Z,36.23
2019-04-06T03:48:45.179Z,37.75
2019-04-06T03:51:14.029Z,39.45
2019-04-06T03:53:43.318Z,42.85
2019-04-06T03:56:12.299Z,42.55
2019-04-06T03:58:41.156Z,41.08
2019-04-06T04:01:10.017Z,42.03
2019-04-06T04:03:38.950Z,37.40
2019-04-06T04:06:07.750Z,40.25
2019-04-06T04:08:36.561Z,38.05
2019-04-06T04:11:05.432Z,42.40
2019-04-06T04:13:34.310Z,36.75
2019-04-06T04:16:03.103Z,40.83
2019-04-06T04:18:31.857Z,41.88
2019-04-06T04:21:00.619Z,39.58
2019-04-06T04:23:29.383Z,40.23
2019-04-06T04:25:58.172Z,36.30
2019-04-06T04:28:27.351Z,35.95
2019-04-06T04:30:56.179Z,34.33
2019-04-06T04:33:24.971Z,40.52
2019-04-06T04:35:53.799Z,36.63
2019-04-06T04:38:22.748Z,35.85
2019-04-06T04:40:51.576Z,37.65
2019-04-06T04:43:20.395Z,35.10
2019-04-06T04:45:49.208Z,37.75
2019-04-06T04:48:17.994Z,35.68
2019-04-06T04:50:46.785Z,37.08
2019-04-06T04:53:15.613Z,37.08
2019-04-06T04:55:44.491Z,37.08
2019-04-06T04:58:13.376Z,39.73
2019-04-06T05:00:42.213Z,36.65
2019-04-06T05:03:11.012Z,38.35
2019-04-06T05:05:39.836Z,39.60
2019-04-06T05:08:08.626Z,35.20
2019-04-06T05:10:37.381Z,42.10
2019-04-06T05:13:06.188Z,37.73
2019-04-06T05:15:47.077Z,39.42
2019-04-06T05:18:15.923Z,38.58
2019-04-06T05:20:44.690Z,40.05
2019-04-06T05:23:13.445Z,35.25
2019-04-06T05:25:42.222Z,36.05
2019-04-06T05:28:11.033Z,36.13
2019-04-06T05:30:39.802Z,36.42
2019-04-06T05:33:08.569Z,34.65
2019-04-06T05:35:37.417Z,32.85
2019-04-06T05:38:06.213Z,39.05
2019-04-06T05:40:35.329Z,38.28
2019-04-06T05:43:04.097Z,41.20
2019-04-06T05:45:32.847Z,40.35
2019-04-06T05:48:01.605Z,34.80
2019-04-06T05:50:30.362Z,35.60
2019-04-06T05:52:59.103Z,37.58
2019-04-06T05:55:27.897Z,37.48
2019-04-06T05:58:03.392Z,37.50
2019-04-06T06:00:27.767Z,37.67
2019-04-06T06:02:56.541Z,39.18
2019-04-06T06:05:25.399Z,39.20
2019-04-06T06:07:54.425Z,35.95
2019-04-06T06:10:23.272Z,39.10
2019-04-06T06:12:52.157Z,39.40
2019-04-06T06:15:20.976Z,35.08
2019-04-06T06:17:49.746Z,45.27
2019-04-06T06:20:18.525Z,42.83
2019-04-06T06:22:47.615Z,40.70
2019-04-06T06:25:16.484Z,37.33
2019-04-06T06:27:45.312Z,42.80
2019-04-06T06:30:14.400Z,40.03
2019-04-06T06:32:42.945Z,37.87
2019-04-06T06:35:11.623Z,42.53
2019-04-06T06:37:40.194Z,38.53
2019-04-06T06:40:08.882Z,44.13
2019-04-06T06:42:37.364Z,40.03
2019-04-06T06:45:06.840Z,39.30
2019-04-06T06:47:35.400Z,37.93
2019-04-06T06:50:06.250Z,44.60
2019-04-06T06:52:34.806Z,39.93
2019-04-06T06:55:03.340Z,40.10
2019-04-06T06:57:31.806Z,48.10
2019-04-06T07:00:00.282Z,40.90
2019-04-06T07:02:28.796Z,43.20
2019-04-06T07:04:57.365Z,39.80
2019-04-06T07:07:25.925Z,42.23
2019-04-06T07:10:04.397Z,40.10
2019-04-06T07:12:24.644Z,44.77
2019-04-06T07:14:53.253Z,40.50
2019-04-06T07:17:22.008Z,40.73
2019-04-06T07:19:50.586Z,40.30
2019-04-06T07:22:19.094Z,41.70
2019-04-06T07:24:47.592Z,41.87
2019-04-06T07:27:16.089Z,65.30
2019-04-06T07:29:44.544Z,42.10
2019-04-06T07:32:13.014Z,41.43
2019-04-06T07:34:41.521Z,41.57
2019-04-06T07:37:10.028Z,42.67
2019-04-06T07:39:38.582Z,41.63
2019-04-06T07:42:07.361Z,40.60
2019-04-06T07:44:35.900Z,41.00
2019-04-06T07:47:04.411Z,44.30
2019-04-06T07:49:32.897Z,40.13
2019-04-06T07:52:01.360Z,40.63
2019-04-06T07:54:29.851Z,40.53
2019-04-06T07:56:58.316Z,46.93
2019-04-06T07:59:26.791Z,40.50
2019-04-06T08:01:55.625Z,43.33
2019-04-06T08:04:24.176Z,39.33
2019-04-06T08:06:52.665Z,41.93
2019-04-06T08:09:21.139Z,40.40
2019-04-06T08:11:49.645Z,40.87
2019-04-06T08:14:18.300Z,42.80
2019-04-06T08:16:46.796Z,44.57
2019-04-06T08:19:15.290Z,38.13
2019-04-06T08:21:43.797Z,41.90
2019-04-06T08:24:12.311Z,38.40
2019-04-06T08:26:40.816Z,41.37
2019-04-06T08:29:09.414Z,36.80
2019-04-06T08:31:37.908Z,39.73
2019-04-06T08:34:06.404Z,40.07
2019-04-06T08:36:34.965Z,38.67
2019-04-06T08:39:05.165Z,39.50
2019-04-06T08:41:33.963Z,40.00
2019-04-06T08:44:02.510Z,39.07
2019-04-06T08:46:31.022Z,39.47
2019-04-06T08:48:59.604Z,45.03
2019-04-06T08:51:29.011Z,44.10
2019-04-06T08:53:57.989Z,42.30
2019-04-06T08:56:26.922Z,43.33
2019-04-06T08:58:55.885Z,37.87
2019-04-06T09:01:24.670Z,40.70
2019-04-06T09:03:53.572Z,36.20
2019-04-06T09:06:22.666Z,37.03
2019-04-06T09:08:51.529Z,36.30
2019-04-06T09:11:20.344Z,38.50
2019-04-06T09:13:49.217Z,34.93
2019-04-06T09:16:18.177Z,39.53
2019-04-06T09:18:48.888Z,32.50
2019-04-06T09:21:18.079Z,34.43
2019-04-06T09:23:46.639Z,33.47
2019-04-06T09:26:15.414Z,37.77
2019-04-06T09:28:44.534Z,33.37
2019-04-06T09:31:14.445Z,31.77
2019-04-06T09:33:42.986Z,31.53
2019-04-06T09:36:11.973Z,31.87
2019-04-06T09:38:40.555Z,31.93
2019-04-06T09:41:09.117Z,33.87
2019-04-06T09:43:37.856Z,30.40
2019-04-06T09:46:22.731Z,34.47
2019-04-06T09:48:55.660Z,32.83
2019-04-06T09:51:29.145Z,30.47
2019-04-06T09:54:07.560Z,30.70
2019-04-06T09:56:37.491Z,31.60
2019-04-06T09:59:37.934Z,30.90
2019-04-06T10:02:24.900Z,29.60
2019-04-06T10:04:55.134Z,32.70
2019-04-06T10:07:41.992Z,28.37
2019-04-06T10:10:12.381Z,29.07
2019-04-06T10:12:42.593Z,29.60
2019-04-06T10:15:22.245Z,29.20
2019-04-06T10:17:58.134Z,27.70
2019-04-06T10:20:37.404Z,28.73
2019-04-06T10:23:24.109Z,29.07
2019-04-06T10:25:54.243Z,32.03
2019-04-06T10:28:24.456Z,33.53
2019-04-06T10:30:57.654Z,27.60
2019-04-06T10:36:18.495Z,27.73
2019-04-06T10:38:54.571Z,26.23
2019-04-06T10:41:30.894Z,30.07
2019-04-06T10:44:16.313Z,27.00
2019-04-06T10:46:46.710Z,27.43
2019-04-06T10:49:28.719Z,29.30
2019-04-06T10:52:01.814Z,26.53
2019-04-06T10:54:32.238Z,25.50
2019-04-06T10:57:02.533Z,26.63
2019-04-06T10:59:35.595Z,30.33
2019-04-06T11:02:23.656Z,27.50
2019-04-06T11:04:54.185Z,26.90
2019-04-06T11:07:29.076Z,27.33
2019-04-06T11:10:06.728Z,27.90
2019-04-06T11:12:39.899Z,27.30
2019-04-06T11:15:10.346Z,26.90
2019-04-06T11:17:55.540Z,25.03
2019-04-06T11:20:26.238Z,25.57
2019-04-06T11:22:56.354Z,28.00
2019-04-06T11:25:43.502Z,24.23
2019-04-06T11:28:13.703Z,30.50
2019-04-06T11:30:49.525Z,30.33
2019-04-06T11:33:22.425Z,32.07
2019-04-06T11:35:52.526Z,27.40
2019-04-06T11:38:59.386Z,27.00
2019-04-06T11:42:06.319Z,27.10
2019-04-06T11:51:20.381Z,28.63
2019-04-06T11:54:28.421Z,26.73
2019-04-06T11:57:35.350Z,28.70
2019-04-06T12:00:42.210Z,27.20
2019-04-06T12:54:05.496Z,25.00
2019-04-06T13:00:00.806Z,23.80
2019-04-06T13:33:01.313Z,21.37
2019-04-06T14:35:52.261Z,18.00
2019-04-06T14:45:02.792Z,19.23
2019-04-06T16:02:16.230Z,17.87
2019-04-06T16:04:56.247Z,18.17
2019-04-06T16:40:43.854Z,25.27
2019-04-06T17:22:46.771Z,21.97
2019-04-06T17:31:38.359Z,21.87
2019-04-06T17:37:51.091Z,21.63
2019-04-06T17:52:59.412Z,28.90
2019-04-06T18:13:31.969Z,24.17
2019-04-06T18:43:05.253Z,25.97
2019-04-06T19:09:50.988Z,26.80
2019-04-06T19:33:37.496Z,24.40
2019-04-06T20:00:11.909Z,24.20
2019-04-06T20:05:51.487Z,25.40
2019-04-06T20:20:44.095Z,22.50
2019-04-06T20:32:20.255Z,25.73
2019-04-06T21:01:52.064Z,26.55
2019-04-06T21:40:32.174Z,26.68
2019-04-06T21:43:13.446Z,26.07
2019-04-06T22:00:56.657Z,32.40
2019-04-06T22:03:25.933Z,24.37
2019-04-06T22:06:15.180Z,37.88
2019-04-06T22:53:44.157Z,28.70
2019-04-06T23:05:27.927Z,29.02
2019-04-06T23:29:15.534Z,27.82
2019-04-06T23:31:56.085Z,28.27
2019-04-06T23:37:36.730Z,26.93
2019-04-06T23:40:08.379Z,33.70
2019-04-06T23:42:37.637Z,28.17
2019-04-06T23:45:07.630Z,27.32
2019-04-06T23:47:36.525Z,27.07
2019-04-06T23:50:07.634Z,26.50
2019-04-06T23:52:36.841Z,27.73
2019-04-06T23:55:09.427Z,25.37
2019-04-06T23:57:38.446Z,27.37
